Time;durP1;ratioP1;P1;durP2;ratioP2;P2;SDS_P1;SDS_P2;PMS_P1;PMS_P2;Temp;Humidity;BMP_temperature;BMP_pressure;BME280_temperature;BME280_humidity;BME280_pressure;Samples;Min_cycle;Max_cycle;Signal;HPM_P1;HPM_P2
2022/03/15 00:00:26;;;;;;;30.98;10.98;;;4.50;99.90;;;;;;5130943;27;20050;-88
2022/03/15 00:02:52;;;;;;;26.15;10.55;;;4.10;99.90;;;;;;5097479;27;20483;-90
2022/03/15 00:05:18;;;;;;;21.88;11.07;;;3.20;99.90;;;;;;5080487;27;20043;-89
2022/03/15 00:07:44;;;;;;;31.73;10.98;;;3.20;99.90;;;;;;5096165;27;20142;-90
2022/03/15 00:10:12;;;;;;;24.27;10.60;;;3.20;99.90;;;;;;5114553;27;20714;-88
2022/03/15 00:12:38;;;;;;;24.35;11.10;;;3.20;99.90;;;;;;5114142;27;20078;-91
2022/03/15 00:15:04;;;;;;;28.77;11.60;;;3.20;99.90;;;;;;5114060;27;20047;-90
2022/03/15 00:17:31;;;;;;;31.90;12.40;;;3.20;99.90;;;;;;5113968;27;20094;-88
2022/03/15 00:19:57;;;;;;;36.67;13.95;;;3.30;99.90;;;;;;5131174;27;20051;-89
2022/03/15 00:22:23;;;;;;;43.15;15.98;;;3.30;99.90;;;;;;5113764;27;20035;-84
2022/03/15 00:24:49;;;;;;;38.97;15.75;;;3.40;99.90;;;;;;5130573;27;20051;-89
2022/03/15 00:27:14;;;;;;;36.15;16.65;;;3.60;99.90;;;;;;5131574;27;20047;-89
2022/03/15 00:29:41;;;;;;;41.17;17.05;;;3.90;99.90;;;;;;5131392;27;20138;-87
2022/03/15 00:32:08;;;;;;;38.17;18.30;;;3.40;99.90;;;;;;5131532;27;20102;-88
2022/03/15 00:34:34;;;;;;;45.33;19.38;;;3.40;99.90;;;;;;5113832;27;20082;-88
2022/03/15 00:36:59;;;;;;;49.25;22.13;;;3.50;99.90;;;;;;5115942;28;20047;-88
2022/03/15 00:39:25;;;;;;;45.42;21.15;;;3.50;99.90;;;;;;5129713;27;20042;-82
2022/03/15 00:41:50;;;;;;;42.70;20.90;;;3.60;99.90;;;;;;5119824;27;20093;-87
2022/03/15 00:44:16;;;;;;;48.85;22.77;;;3.90;99.90;;;;;;5113530;27;20455;-88
2022/03/15 00:46:42;;;;;;;50.55;22.52;;;4.10;99.90;;;;;;5130221;27;20043;-88
2022/03/15 00:49:07;;;;;;;46.72;23.00;;;3.60;99.90;;;;;;5131030;27;20486;-88
2022/03/15 00:51:34;;;;;;;49.95;24.48;;;3.60;99.90;;;;;;5131872;28;20103;-88
2022/03/15 00:54:00;;;;;;;49.60;23.23;;;3.60;99.90;;;;;;5130691;28;20444;-88
2022/03/15 00:56:26;;;;;;;47.83;22.98;;;3.60;99.90;;;;;;5115952;28;20074;-88
2022/03/15 00:58:51;;;;;;;45.67;22.83;;;4.00;99.90;;;;;;5114240;28;20479;-88
2022/03/15 01:01:17;;;;;;;49.97;24.35;;;3.60;99.90;;;;;;5115420;28;20130;-89
2022/03/15 01:03:43;;;;;;;51.58;24.63;;;4.60;99.90;;;;;;5097313;28;20047;-88
2022/03/15 01:06:09;;;;;;;48.88;25.15;;;3.60;99.90;;;;;;5097445;28;20083;-88
2022/03/15 01:08:35;;;;;;;54.15;23.58;;;3.60;99.90;;;;;;5113717;28;20051;-87
2022/03/15 01:11:01;;;;;;;50.67;25.02;;;3.70;99.90;;;;;;5097727;28;20384;-87
2022/03/15 01:13:27;;;;;;;43.70;24.65;;;3.50;99.90;;;;;;5097325;28;20126;-87
2022/03/15 01:15:53;;;;;;;43.55;24.30;;;3.80;99.90;;;;;;5080121;28;20139;-88
2022/03/15 01:18:20;;;;;;;49.83;24.80;;;3.50;99.90;;;;;;5114104;28;20059;-88
2022/03/15 01:20:46;;;;;;;49.60;24.35;;;3.50;99.90;;;;;;5096984;28;20491;-89
2022/03/15 01:23:12;;;;;;;53.38;27.00;;;3.40;99.90;;;;;;5097787;28;20058;-88
2022/03/15 01:25:39;;;;;;;49.05;26.38;;;3.40;99.90;;;;;;5084374;28;20086;-87
2022/03/15 01:28:05;;;;;;;54.78;26.20;;;3.50;99.90;;;;;;5107901;28;20179;-88
2022/03/15 01:30:30;;;;;;;51.88;27.00;;;3.40;99.90;;;;;;5112969;28;20507;-88
2022/03/15 01:32:56;;;;;;;48.78;26.92;;;3.90;99.90;;;;;;5113635;28;20043;-88
2022/03/15 01:35:22;;;;;;;44.80;25.25;;;3.80;99.90;;;;;;5113913;28;20498;-84
2022/03/15 01:37:48;;;;;;;51.83;28.45;;;3.30;99.90;;;;;;5079642;28;20052;-88
2022/03/15 01:40:13;;;;;;;52.38;29.13;;;3.40;99.90;;;;;;5113916;28;20067;-86
2022/03/15 01:42:40;;;;;;;52.55;28.00;;;3.20;99.90;;;;;;5113220;28;20051;-88
2022/03/15 01:45:06;;;;;;;63.50;30.52;;;3.80;99.90;;;;;;5096167;28;20043;-89
2022/03/15 01:47:32;;;;;;;61.92;30.10;;;3.20;99.90;;;;;;5096585;28;20495;-89
2022/03/15 01:49:58;;;;;;;62.47;30.13;;;3.20;99.90;;;;;;5078930;28;20059;-87
2022/03/15 01:52:23;;;;;;;61.78;30.23;;;3.20;99.90;;;;;;5096362;28;20044;-88
2022/03/15 01:54:49;;;;;;;52.25;28.10;;;3.20;99.90;;;;;;5079234;28;20047;-89
2022/03/15 01:57:15;;;;;;;63.88;31.10;;;4.00;99.90;;;;;;5096923;28;20087;-89
2022/03/15 01:59:41;;;;;;;51.08;28.13;;;4.20;99.90;;;;;;5113236;28;20130;-89
2022/03/15 02:02:07;;;;;;;55.10;29.77;;;3.10;99.90;;;;;;5114447;28;20122;-89
2022/03/15 02:04:32;;;;;;;62.42;31.20;;;4.10;99.90;;;;;;5113406;28;20441;-89
2022/03/15 02:07:03;;;;;;;51.67;29.25;;;3.10;99.90;;;;;;5077841;28;20552;-87
2022/03/15 02:09:29;;;;;;;56.67;29.88;;;3.10;99.90;;;;;;5096103;28;20104;-88
2022/03/15 02:11:55;;;;;;;56.97;29.30;;;4.20;99.90;;;;;;5095337;28;20055;-87
2022/03/15 02:14:21;;;;;;;54.70;27.25;;;3.60;99.90;;;;;;5062584;28;20060;-89
2022/03/15 02:16:46;;;;;;;57.50;29.75;;;3.00;99.90;;;;;;5095824;28;20054;-89
2022/03/15 02:19:12;;;;;;;60.47;30.08;;;3.00;99.90;;;;;;5096362;28;20048;-90
2022/03/15 02:21:38;;;;;;;60.20;33.15;;;3.00;99.90;;;;;;5101466;28;20043;-84
2022/03/15 02:24:05;;;;;;;63.88;31.00;;;3.20;99.90;;;;;;5098553;28;20079;-86
2022/03/15 02:26:30;;;;;;;67.90;33.40;;;3.00;99.90;;;;;;5079676;28;20039;-89
2022/03/15 02:28:56;;;;;;;57.13;32.45;;;3.10;99.90;;;;;;5095443;28;20044;-89
2022/03/15 02:31:21;;;;;;;60.70;33.05;;;3.10;99.90;;;;;;5096050;28;20077;-89
2022/03/15 02:33:48;;;;;;;61.38;31.83;;;3.10;99.90;;;;;;5112549;28;20498;-89
2022/03/15 02:36:15;;;;;;;64.47;34.20;;;3.10;99.90;;;;;;5095585;28;20108;-89
2022/03/15 02:38:41;;;;;;;61.25;33.17;;;4.00;99.90;;;;;;5112668;28;20063;-83
2022/03/15 02:41:06;;;;;;;63.00;32.50;;;4.00;99.90;;;;;;5096053;28;20043;-88
2022/03/15 02:43:32;;;;;;;68.28;35.40;;;3.30;99.90;;;;;;5112331;28;20097;-89
2022/03/15 02:45:58;;;;;;;72.20;35.83;;;3.30;99.90;;;;;;5094938;28;20555;-89
2022/03/15 02:48:23;;;;;;;64.13;34.92;;;4.90;99.90;;;;;;5095920;28;20048;-87
2022/03/15 02:50:49;;;;;;;75.25;37.28;;;3.50;99.90;;;;;;5112094;28;20047;-89
2022/03/15 02:53:16;;;;;;;74.47;37.47;;;4.60;99.90;;;;;;5095339;28;20134;-88
2022/03/15 02:55:46;;;;;;;70.82;38.05;;;4.40;99.90;;;;;;5112402;28;20091;-84
2022/03/15 02:58:12;;;;;;;68.28;34.20;;;3.70;99.90;;;;;;5113861;28;20040;-88
2022/03/15 03:00:38;;;;;;;70.75;34.53;;;3.80;99.90;;;;;;5095735;28;20151;-89
2022/03/15 03:03:04;;;;;;;62.35;35.28;;;3.80;99.90;;;;;;5111787;28;20100;-88
2022/03/15 03:05:30;;;;;;;62.22;34.22;;;4.10;99.90;;;;;;5095231;28;20081;-87
2022/03/15 03:07:55;;;;;;;66.15;32.75;;;3.90;99.90;;;;;;5110944;28;20058;-86
2022/03/15 03:10:21;;;;;;;70.68;34.38;;;4.10;99.90;;;;;;5113209;28;20048;-88
2022/03/15 03:12:48;;;;;;;62.60;32.70;;;3.90;99.90;;;;;;5111150;28;20051;-83
2022/03/15 03:15:14;;;;;;;62.65;31.23;;;3.90;99.90;;;;;;5095227;28;20051;-89
2022/03/15 03:17:42;;;;;;;56.83;31.23;;;3.90;99.90;;;;;;5079192;28;20051;-88
2022/03/15 03:20:12;;;;;;;59.05;30.25;;;4.50;99.90;;;;;;5078303;28;20108;-89
2022/03/15 03:22:39;;;;;;;57.25;29.42;;;3.80;99.90;;;;;;5078149;28;20047;-88
2022/03/15 03:25:05;;;;;;;62.03;31.65;;;3.80;99.90;;;;;;5112885;28;20387;-88
2022/03/15 03:27:31;;;;;;;54.95;29.83;;;3.70;99.90;;;;;;5115909;28;20078;-86
2022/03/15 03:30:00;;;;;;;58.08;28.55;;;4.20;99.90;;;;;;5100177;28;20043;-87
2022/03/15 03:32:26;;;;;;;51.85;26.92;;;3.70;99.90;;;;;;5095287;28;20047;-88
2022/03/15 03:34:52;;;;;;;56.35;27.52;;;3.70;99.90;;;;;;5104408;28;20097;-87
2022/03/15 03:37:18;;;;;;;47.85;25.95;;;3.70;99.90;;;;;;5116785;28;20189;-84
2022/03/15 03:39:44;;;;;;;61.88;27.42;;;3.60;99.90;;;;;;5104061;28;20104;-88
2022/03/15 03:42:10;;;;;;;53.30;26.17;;;3.60;99.90;;;;;;5076807;28;20226;-89
2022/03/15 03:44:36;;;;;;;52.35;26.85;;;3.50;99.90;;;;;;5094307;28;20051;-88
2022/03/15 03:47:02;;;;;;;52.38;25.85;;;3.50;99.90;;;;;;5110614;28;20760;-88
2022/03/15 03:49:32;;;;;;;56.20;26.23;;;3.40;99.90;;;;;;5112360;28;20101;-89
2022/03/15 03:51:58;;;;;;;52.47;27.42;;;3.50;99.90;;;;;;5094265;28;20384;-88
2022/03/15 03:54:24;;;;;;;55.33;24.88;;;3.50;99.90;;;;;;5093604;28;20058;-87
2022/03/15 03:56:50;;;;;;;49.75;27.33;;;3.50;99.90;;;;;;5077023;28;20544;-86
2022/03/15 03:59:16;;;;;;;51.80;27.33;;;3.70;99.90;;;;;;5110967;28;20090;-89
2022/03/15 04:01:43;;;;;;;49.65;24.88;;;3.50;99.90;;;;;;5094038;28;20143;-87
2022/03/15 04:04:10;;;;;;;58.92;25.52;;;3.50;99.90;;;;;;5078572;28;20044;-89
2022/03/15 04:06:36;;;;;;;45.75;25.05;;;3.60;99.90;;;;;;5111056;28;20099;-85
2022/03/15 04:09:04;;;;;;;49.95;25.67;;;4.50;99.90;;;;;;5096176;28;20063;-88
2022/03/15 04:11:31;;;;;;;49.88;24.70;;;4.50;99.90;;;;;;5079070;28;20176;-88
2022/03/15 04:13:59;;;;;;;46.00;23.10;;;3.60;99.90;;;;;;5112228;28;20102;-87
2022/03/15 04:16:28;;;;;;;49.50;24.05;;;3.70;99.90;;;;;;5079178;28;20047;-87
2022/03/15 04:18:53;;;;;;;46.63;24.13;;;3.60;99.90;;;;;;5114046;28;20055;-84
2022/03/15 04:21:24;;;;;;;54.95;24.38;;;3.70;99.90;;;;;;5112342;28;20047;-87
2022/03/15 04:23:54;;;;;;;56.28;25.63;;;3.80;99.90;;;;;;5095169;28;20444;-88
2022/03/15 04:26:23;;;;;;;47.78;24.77;;;3.80;99.90;;;;;;5113601;28;20047;-87
2022/03/15 04:28:49;;;;;;;49.42;24.35;;;3.80;99.90;;;;;;5083773;28;20051;-86
2022/03/15 04:31:14;;;;;;;46.65;24.10;;;3.80;99.90;;;;;;5125911;28;20035;-84
2022/03/15 04:33:40;;;;;;;47.08;23.67;;;3.80;99.90;;;;;;5147065;27;20399;-88
2022/03/15 04:36:07;;;;;;;48.35;24.75;;;4.10;99.90;;;;;;5093601;28;20479;-87
2022/03/15 04:38:34;;;;;;;46.47;23.33;;;3.90;99.90;;;;;;5095104;28;20118;-87
2022/03/15 04:41:00;;;;;;;54.95;24.52;;;3.90;99.90;;;;;;5093846;28;20047;-87
2022/03/15 04:43:25;;;;;;;45.55;24.48;;;4.90;99.90;;;;;;5111212;28;20032;-88
2022/03/15 04:45:51;;;;;;;46.45;24.05;;;4.00;99.90;;;;;;5128275;27;20057;-87
2022/03/15 04:48:18;;;;;;;54.60;24.05;;;4.10;99.90;;;;;;5093460;28;20213;-89
2022/03/15 04:50:44;;;;;;;56.22;25.50;;;5.60;99.90;;;;;;5093683;28;20063;-87
2022/03/15 04:53:10;;;;;;;52.47;24.63;;;4.10;99.90;;;;;;5093100;28;20052;-87
2022/03/15 04:55:36;;;;;;;50.53;24.25;;;4.10;99.90;;;;;;5111294;28;20050;-88
2022/03/15 04:58:01;;;;;;;49.80;24.65;;;4.10;99.90;;;;;;5110035;28;20092;-88
2022/03/15 05:00:27;;;;;;;55.67;26.10;;;4.10;99.90;;;;;;5093990;28;20100;-87
2022/03/15 05:02:52;;;;;;;53.45;25.10;;;4.70;99.90;;;;;;5110342;28;20368;-88
2022/03/15 05:05:18;;;;;;;53.30;25.85;;;4.20;99.90;;;;;;5109659;28;20058;-87
2022/03/15 05:07:44;;;;;;;54.45;26.58;;;4.30;99.90;;;;;;5093087;28;20456;-87
2022/03/15 05:12:53;;;;;;;46.97;25.42;;;4.40;99.90;;;;;;5110610;28;20051;-87
2022/03/15 05:15:20;;;;;;;50.20;25.17;;;4.40;99.90;;;;;;5092991;28;20043;-87
2022/03/15 05:17:46;;;;;;;56.75;25.27;;;4.40;99.90;;;;;;5093530;28;20079;-87
2022/03/15 05:20:12;;;;;;;54.67;25.10;;;4.40;99.90;;;;;;5092853;28;20438;-88
2022/03/15 05:22:37;;;;;;;52.22;26.90;;;4.40;99.90;;;;;;5076855;28;20128;-86
2022/03/15 05:25:04;;;;;;;55.65;26.85;;;4.40;99.90;;;;;;5076261;28;20134;-84
2022/03/15 05:27:32;;;;;;;55.65;26.35;;;4.40;99.90;;;;;;5093935;28;20059;-86
2022/03/15 05:29:59;;;;;;;54.97;24.95;;;4.50;99.90;;;;;;5077160;28;20121;-87
2022/03/15 05:32:25;;;;;;;49.25;24.30;;;4.40;99.90;;;;;;5110057;28;20051;-85
2022/03/15 05:34:51;;;;;;;40.08;22.02;;;5.20;99.90;;;;;;5110208;28;20161;-88
2022/03/15 05:37:16;;;;;;;38.05;19.67;;;4.40;99.90;;;;;;5075729;28;20055;-87
2022/03/15 05:39:42;;;;;;;37.60;20.35;;;4.30;99.90;;;;;;5092702;28;20055;-88
2022/03/15 05:42:09;;;;;;;37.97;20.73;;;4.80;99.90;;;;;;5093031;28;20050;-87
2022/03/15 05:44:35;;;;;;;39.05;21.25;;;4.20;99.90;;;;;;5097105;28;20401;-87
2022/03/15 05:47:00;;;;;;;37.58;20.63;;;4.20;99.90;;;;;;5133378;27;20056;-88
2022/03/15 05:49:26;;;;;;;38.28;20.98;;;4.40;99.90;;;;;;5130279;28;20058;-83
2022/03/15 05:51:51;;;;;;;35.35;20.85;;;4.10;99.90;;;;;;5146375;27;20365;-85
2022/03/15 05:54:17;;;;;;;34.83;20.52;;;4.10;99.90;;;;;;5116432;28;20083;-85
2022/03/15 05:56:43;;;;;;;38.40;20.98;;;4.00;99.90;;;;;;5131044;27;20051;-86
2022/03/15 05:59:09;;;;;;;45.88;23.33;;;5.10;99.90;;;;;;5134040;27;20051;-86
2022/03/15 06:01:35;;;;;;;41.88;24.20;;;4.00;99.90;;;;;;5108258;28;20090;-86
2022/03/15 06:04:00;;;;;;;44.47;24.88;;;4.00;99.90;;;;;;5113161;27;20083;-87
2022/03/15 06:06:26;;;;;;;48.65;26.42;;;4.00;99.90;;;;;;5132286;27;20087;-86
2022/03/15 06:08:52;;;;;;;51.97;27.48;;;5.00;99.90;;;;;;5099473;27;20517;-88
2022/03/15 06:11:19;;;;;;;69.25;33.70;;;4.10;99.90;;;;;;5132364;27;20390;-88
2022/03/15 06:13:45;;;;;;;49.85;28.30;;;4.10;99.90;;;;;;5116197;27;20046;-85
2022/03/15 06:16:11;;;;;;;89.43;35.10;;;5.10;99.90;;;;;;5095225;28;20379;-86
2022/03/15 06:18:37;;;;;;;68.10;32.40;;;5.00;99.90;;;;;;5113258;28;20051;-85
2022/03/15 06:21:03;;;;;;;69.30;36.00;;;4.20;99.90;;;;;;5112624;28;20100;-85
2022/03/15 06:23:29;;;;;;;81.97;39.13;;;5.30;99.90;;;;;;5113357;28;20043;-86
2022/03/15 06:25:55;;;;;;;90.95;40.75;;;4.60;99.90;;;;;;5113019;28;20047;-85
2022/03/15 06:28:20;;;;;;;93.03;43.25;;;4.60;99.90;;;;;;5112012;28;20089;-86
2022/03/15 06:30:46;;;;;;;88.93;41.78;;;4.80;99.90;;;;;;5112570;28;20176;-87
2022/03/15 06:33:12;;;;;;;88.07;43.92;;;5.30;99.90;;;;;;5112034;28;20558;-84
2022/03/15 06:35:38;;;;;;;98.30;43.72;;;4.90;99.90;;;;;;5098056;28;20059;-86
2022/03/15 06:38:03;;;;;;;87.10;40.53;;;4.90;99.90;;;;;;5131644;28;20059;-85
2022/03/15 06:40:32;;;;;;;90.40;41.65;;;5.00;99.90;;;;;;5122448;28;20054;-88
2022/03/15 06:42:58;;;;;;;92.13;42.38;;;6.10;99.90;;;;;;5080008;28;20051;-87
2022/03/15 06:45:24;;;;;;;89.97;42.38;;;5.20;99.90;;;;;;5078203;28;20052;-87
2022/03/15 06:47:50;;;;;;;82.30;40.80;;;5.10;99.90;;;;;;5078843;28;20369;-86
2022/03/15 06:50:15;;;;;;;79.68;41.25;;;5.20;99.90;;;;;;5095060;28;20043;-87
2022/03/15 06:52:42;;;;;;;82.43;40.15;;;5.20;99.90;;;;;;5062104;28;20099;-86
2022/03/15 06:55:09;;;;;;;84.78;41.08;;;5.10;99.90;;;;;;5079638;28;20059;-88
2022/03/15 06:57:34;;;;;;;82.60;40.47;;;5.20;99.90;;;;;;5096095;28;20058;-87
2022/03/15 07:00:01;;;;;;;85.63;41.03;;;5.20;99.90;;;;;;5113312;28;20044;-86
2022/03/15 07:02:27;;;;;;;77.47;39.05;;;5.20;99.90;;;;;;5112590;27;20052;-86
2022/03/15 07:04:53;;;;;;;70.90;36.72;;;5.20;99.90;;;;;;5111695;28;20782;-86
2022/03/15 07:07:19;;;;;;;78.65;38.28;;;5.30;99.90;;;;;;5111472;28;20051;-84
2022/03/15 07:09:45;;;;;;;74.68;39.05;;;5.30;99.90;;;;;;5111937;28;20475;-86
2022/03/15 07:12:11;;;;;;;76.97;40.13;;;5.30;99.90;;;;;;5111529;28;20040;-87
2022/03/15 07:14:37;;;;;;;81.45;40.83;;;5.30;99.90;;;;;;5094253;28;20055;-87
2022/03/15 07:17:03;;;;;;;79.65;39.95;;;5.30;99.90;;;;;;5094981;28;20395;-87
2022/03/15 07:19:29;;;;;;;81.35;39.60;;;5.40;99.90;;;;;;5111464;28;20134;-85
2022/03/15 07:21:54;;;;;;;76.68;36.38;;;5.40;99.90;;;;;;5110854;28;20055;-83
2022/03/15 07:24:20;;;;;;;67.00;36.15;;;5.40;99.90;;;;;;5110910;28;20043;-87
2022/03/15 07:26:46;;;;;;;76.88;38.85;;;5.60;99.90;;;;;;5094790;28;20050;-87
2022/03/15 07:29:12;;;;;;;70.03;35.25;;;5.60;99.90;;;;;;5094881;28;20046;-87
2022/03/15 07:31:37;;;;;;;79.47;38.45;;;5.60;99.90;;;;;;5113402;28;20055;-85
2022/03/15 07:34:03;;;;;;;68.97;37.35;;;5.60;99.90;;;;;;5114007;28;20136;-83
2022/03/15 07:36:29;;;;;;;71.68;38.90;;;6.10;99.90;;;;;;5121435;28;20047;-86
2022/03/15 07:38:55;;;;;;;67.95;37.75;;;5.60;99.90;;;;;;5111835;28;20147;-84
2022/03/15 07:41:23;;;;;;;74.20;37.80;;;5.70;99.90;;;;;;5093379;28;20051;-85
2022/03/15 07:43:49;;;;;;;78.45;39.20;;;5.70;99.90;;;;;;5111399;28;20387;-86
2022/03/15 07:46:14;;;;;;;74.00;38.65;;;5.80;99.90;;;;;;5110587;28;20056;-87
2022/03/15 07:48:40;;;;;;;78.65;39.05;;;5.90;99.90;;;;;;5093770;28;20055;-85
2022/03/15 07:51:06;;;;;;;77.30;39.00;;;5.90;99.90;;;;;;5111882;28;20044;-86
2022/03/15 07:53:31;;;;;;;76.15;40.33;;;5.90;99.90;;;;;;5110577;28;20127;-86
2022/03/15 07:56:00;;;;;;;71.68;39.08;;;6.00;99.90;;;;;;5110715;28;20044;-86
2022/03/15 07:58:26;;;;;;;72.85;38.88;;;6.10;99.90;;;;;;5110073;28;20904;-87
2022/03/15 08:00:55;;;;;;;72.40;38.47;;;6.10;99.90;;;;;;5111010;28;20116;-86
2022/03/15 08:03:24;;;;;;;75.43;37.65;;;6.20;99.90;;;;;;5110749;28;20058;-82
2022/03/15 08:05:50;;;;;;;65.10;35.50;;;6.30;99.90;;;;;;5109902;28;20079;-86
2022/03/15 08:08:16;;;;;;;70.35;36.67;;;6.30;99.90;;;;;;5110791;28;20120;-86
2022/03/15 08:10:43;;;;;;;71.22;38.08;;;6.30;99.90;;;;;;5110003;28;20138;-85
2022/03/15 08:13:09;;;;;;;68.45;35.80;;;6.40;99.90;;;;;;5109971;28;20107;-87
2022/03/15 08:15:35;;;;;;;59.42;36.47;;;6.40;99.90;;;;;;5110449;28;20058;-86
2022/03/15 08:18:02;;;;;;;59.25;35.10;;;6.40;99.90;;;;;;5110738;28;20039;-87
2022/03/15 08:20:32;;;;;;;62.17;35.85;;;6.40;99.90;;;;;;5110017;28;20055;-86
2022/03/15 08:22:58;;;;;;;60.88;36.40;;;6.40;99.90;;;;;;5094205;28;20395;-85
2022/03/15 08:25:24;;;;;;;65.43;37.95;;;6.40;99.90;;;;;;5076172;28;20055;-83
2022/03/15 08:27:50;;;;;;;69.57;37.72;;;6.40;99.90;;;;;;5110489;28;20491;-86
2022/03/15 08:30:16;;;;;;;60.13;36.45;;;6.40;99.90;;;;;;5110710;28;20047;-86
2022/03/15 08:32:41;;;;;;;62.38;36.95;;;6.50;99.90;;;;;;5109552;28;20047;-87
2022/03/15 08:35:08;;;;;;;58.33;35.78;;;6.50;99.90;;;;;;5110698;28;20081;-85
2022/03/15 08:37:34;;;;;;;59.30;35.75;;;6.50;99.90;;;;;;5108710;28;20047;-86
2022/03/15 08:40:00;;;;;;;55.15;33.95;;;6.60;99.90;;;;;;5110146;28;20047;-84
2022/03/15 08:42:26;;;;;;;58.00;35.72;;;6.70;99.90;;;;;;5110949;28;20047;-83
2022/03/15 08:44:52;;;;;;;54.13;35.35;;;6.60;99.90;;;;;;5093995;28;20043;-84
2022/03/15 08:47:18;;;;;;;60.00;37.25;;;6.60;99.90;;;;;;5093489;28;20060;-84
2022/03/15 08:49:43;;;;;;;64.88;38.65;;;6.60;99.90;;;;;;5119230;28;20042;-84
2022/03/15 08:52:10;;;;;;;57.70;35.30;;;6.60;99.90;;;;;;5130284;27;20481;-86
2022/03/15 08:54:37;;;;;;;61.20;38.80;;;6.60;99.90;;;;;;5130957;27;20091;-84
2022/03/15 08:57:04;;;;;;;59.78;37.25;;;6.60;99.90;;;;;;5096039;28;20122;-85
2022/03/15 08:59:29;;;;;;;67.50;38.75;;;6.60;99.90;;;;;;5112608;28;20062;-85
2022/03/15 09:01:56;;;;;;;61.60;37.60;;;6.60;99.90;;;;;;5076943;28;20043;-86
2022/03/15 09:04:22;;;;;;;66.47;40.38;;;6.70;99.90;;;;;;5076812;28;20046;-86
2022/03/15 09:06:48;;;;;;;71.05;40.60;;;6.70;99.90;;;;;;5109849;28;20452;-86
2022/03/15 09:09:18;;;;;;;69.38;40.30;;;6.70;99.90;;;;;;5109970;28;20054;-85
2022/03/15 09:11:44;;;;;;;64.13;39.35;;;6.70;99.90;;;;;;5107601;28;20184;-85
2022/03/15 09:14:10;;;;;;;67.63;40.35;;;6.70;99.90;;;;;;5119451;28;20127;-85
2022/03/15 09:16:36;;;;;;;68.55;40.42;;;6.80;99.90;;;;;;5144746;27;20051;-83
2022/03/15 09:19:02;;;;;;;68.10;41.05;;;6.90;99.90;;;;;;5148790;27;20036;-85
2022/03/15 09:21:27;;;;;;;66.47;41.35;;;6.90;99.90;;;;;;5117406;27;20184;-85
2022/03/15 09:23:57;;;;;;;69.13;40.47;;;6.90;99.90;;;;;;5104243;28;20122;-87
2022/03/15 09:26:24;;;;;;;66.38;40.50;;;6.50;99.90;;;;;;5114736;28;20432;-85
2022/03/15 09:28:50;;;;;;;70.10;42.53;;;6.90;99.90;;;;;;5116959;27;20364;-86
2022/03/15 09:31:17;;;;;;;68.28;42.20;;;7.00;99.90;;;;;;5130686;27;20051;-85
2022/03/15 09:33:43;;;;;;;60.15;39.53;;;7.00;99.90;;;;;;5118872;27;20068;-85
2022/03/15 09:36:09;;;;;;;65.38;40.88;;;7.10;99.90;;;;;;5122161;27;20494;-86
2022/03/15 09:38:34;;;;;;;65.25;41.15;;;7.10;99.90;;;;;;5131863;27;20050;-85
2022/03/15 09:41:02;;;;;;;59.58;40.50;;;7.10;99.90;;;;;;5115362;27;20452;-85
2022/03/15 09:43:28;;;;;;;60.22;39.70;;;7.20;99.90;;;;;;5098239;27;20043;-86
2022/03/15 09:45:54;;;;;;;66.22;39.78;;;7.20;99.90;;;;;;5098015;27;20096;-86
2022/03/15 09:48:21;;;;;;;61.03;38.47;;;7.20;99.90;;;;;;5094125;28;20044;-86
2022/03/15 09:50:50;;;;;;;67.47;42.95;;;7.30;99.90;;;;;;5133728;27;20052;-85
2022/03/15 09:53:17;;;;;;;59.50;38.60;;;7.30;99.90;;;;;;5085582;27;20101;-85
2022/03/15 09:55:45;;;;;;;65.80;40.88;;;7.30;99.90;;;;;;5113605;27;20050;-85
2022/03/15 09:58:20;;;;;;;67.03;40.70;;;7.30;99.90;;;;;;5099700;27;20103;-86
2022/03/15 10:00:49;;;;;;;66.43;42.20;;;7.40;99.90;;;;;;5087775;28;20051;-86
2022/03/15 10:03:15;;;;;;;68.68;45.22;;;7.40;99.90;;;;;;5113338;27;20517;-85
2022/03/15 10:05:41;;;;;;;63.00;41.17;;;7.50;99.90;;;;;;5090986;27;20051;-85
2022/03/15 10:08:06;;;;;;;70.05;42.65;;;7.50;99.90;;;;;;5116662;27;20058;-85
2022/03/15 10:10:32;;;;;;;59.50;37.85;;;7.50;99.90;;;;;;5099369;27;20039;-85
2022/03/15 10:12:58;;;;;;;53.17;34.50;;;7.60;99.90;;;;;;5126399;27;20050;-86
2022/03/15 10:15:26;;;;;;;59.45;36.78;;;7.70;99.90;;;;;;5089944;28;20039;-85
2022/03/15 10:17:56;;;;;;;63.30;39.75;;;7.70;99.90;;;;;;5079839;28;20104;-85
2022/03/15 10:20:31;;;;;;;61.20;38.50;;;7.80;99.90;;;;;;5127309;27;20054;-84
2022/03/15 10:23:01;;;;;;;61.85;39.35;;;7.90;99.90;;;;;;5100340;27;20258;-83
2022/03/15 10:25:30;;;;;;;61.22;38.20;;;7.90;99.90;;;;;;5132886;27;20039;-86
2022/03/15 10:28:00;;;;;;;61.88;39.30;;;8.00;99.90;;;;;;5112547;27;20051;-85
2022/03/15 10:30:27;;;;;;;56.30;37.22;;;8.00;99.90;;;;;;5116468;27;20054;-85
2022/03/15 10:32:53;;;;;;;54.33;36.92;;;8.10;99.90;;;;;;5113155;28;20046;-84
2022/03/15 10:35:36;;;;;;;56.63;37.53;;;8.20;99.90;;;;;;5113243;27;20039;-84
2022/03/15 10:38:02;;;;;;;55.10;36.92;;;8.30;99.90;;;;;;5114878;27;20105;-86
2022/03/15 10:40:45;;;;;;;49.75;34.05;;;8.40;99.90;;;;;;5081694;27;20050;-84
2022/03/15 10:43:23;;;;;;;53.28;36.35;;;8.50;99.90;;;;;;5100225;27;20047;-86
2022/03/15 10:45:57;;;;;;;51.95;36.40;;;8.60;99.90;;;;;;5115357;27;20070;-86
2022/03/15 10:48:30;;;;;;;53.45;32.63;;;8.60;99.90;;;;;;5131364;27;20720;-84
2022/03/15 10:51:00;;;;;;;47.73;34.73;;;8.70;99.90;;;;;;5133139;27;20376;-85
2022/03/15 10:53:40;;;;;;;47.53;31.80;;;8.80;99.90;;;;;;5114911;27;20047;-86
2022/03/15 10:56:09;;;;;;;51.15;33.40;;;8.80;99.90;;;;;;5111076;28;20475;-89
2022/03/15 10:58:42;;;;;;;48.72;34.00;;;8.90;99.90;;;;;;5131539;27;20043;-85
2022/03/15 11:01:12;;;;;;;44.80;33.33;;;8.90;99.90;;;;;;5143513;27;20058;-82
2022/03/15 11:03:37;;;;;;;50.20;34.40;;;9.00;99.90;;;;;;5123734;27;20042;-86
2022/03/15 11:06:08;;;;;;;50.85;33.65;;;9.00;99.90;;;;;;5132068;27;20462;-85
2022/03/15 11:08:37;;;;;;;50.55;36.05;;;9.10;99.90;;;;;;5133098;27;20055;-84
2022/03/15 11:11:12;;;;;;;45.67;32.88;;;9.10;99.90;;;;;;5131534;27;20058;-85
2022/03/15 11:13:37;;;;;;;48.95;34.92;;;9.10;99.90;;;;;;5131983;27;20035;-85
2022/03/15 11:16:04;;;;;;;47.05;32.58;;;9.20;99.90;;;;;;5131023;27;20061;-86
2022/03/15 11:18:30;;;;;;;45.92;31.10;;;9.30;99.90;;;;;;5097552;27;20057;-84
2022/03/15 11:20:58;;;;;;;50.78;35.53;;;9.40;99.90;;;;;;5093623;28;20048;-85
2022/03/15 11:23:25;;;;;;;41.40;30.70;;;9.50;99.90;;;;;;5111259;28;20122;-84
2022/03/15 11:26:05;;;;;;;47.55;31.98;;;9.80;99.90;;;;;;5110558;28;20463;-85
2022/03/15 11:28:33;;;;;;;40.13;27.85;;;10.00;99.90;;;;;;5077330;28;20399;-85
2022/03/15 11:30:58;;;;;;;46.40;30.45;;;10.00;99.90;;;;;;5093680;28;20039;-83
2022/03/15 11:33:25;;;;;;;40.35;27.98;;;10.20;99.90;;;;;;5119503;27;20494;-85
2022/03/15 11:35:51;;;;;;;37.80;26.52;;;10.30;99.90;;;;;;5131167;27;20475;-85
2022/03/15 11:38:18;;;;;;;38.70;25.67;;;10.40;99.90;;;;;;5114474;27;20049;-86
2022/03/15 11:40:44;;;;;;;33.25;25.35;;;10.60;99.90;;;;;;5130206;27;20043;-82
2022/03/15 11:43:34;;;;;;;31.25;23.23;;;10.60;99.90;;;;;;5097404;27;20057;-83
2022/03/15 11:46:10;;;;;;;29.33;21.10;;;10.70;99.90;;;;;;5114049;27;20050;-83
2022/03/15 11:49:09;;;;;;;33.70;23.38;;;10.80;99.90;;;;;;5115232;27;20046;-83
2022/03/15 11:51:47;;;;;;;37.22;22.98;;;10.80;99.90;;;;;;5117852;27;20043;-83
2022/03/15 11:54:50;;;;;;;32.45;22.83;;;10.90;99.90;;;;;;5131093;27;20039;-83
2022/03/15 11:57:27;;;;;;;30.17;20.83;;;11.00;99.90;;;;;;5131004;27;20050;-83
2022/03/15 11:59:53;;;;;;;29.15;19.20;;;11.10;99.90;;;;;;5130575;27;20039;-83
2022/03/15 12:02:39;;;;;;;30.15;19.95;;;11.10;99.90;;;;;;5130627;27;20046;-82
2022/03/15 12:05:17;;;;;;;28.23;20.42;;;11.30;99.90;;;;;;5114863;27;20469;-83
2022/03/15 12:07:47;;;;;;;30.13;19.80;;;11.30;99.90;;;;;;5131134;27;20047;-83
2022/03/15 12:10:23;;;;;;;25.35;19.50;;;11.40;99.90;;;;;;5131890;27;20129;-83
2022/03/15 12:13:02;;;;;;;27.65;20.23;;;11.60;99.90;;;;;;5130420;27;20046;-84
2022/03/15 12:15:36;;;;;;;26.98;19.17;;;11.70;99.90;;;;;;5113780;27;20389;-87
2022/03/15 12:18:14;;;;;;;28.75;18.85;;;11.50;99.90;;;;;;5112934;27;20450;-86
2022/03/15 12:20:50;;;;;;;27.27;19.73;;;11.60;99.90;;;;;;5100075;27;20039;-86
2022/03/15 12:23:27;;;;;;;25.85;19.80;;;11.70;99.90;;;;;;5112616;27;20043;-85
2022/03/15 12:25:56;;;;;;;30.05;20.42;;;11.70;99.90;;;;;;5114115;27;20044;-86
2022/03/15 12:28:29;;;;;;;25.27;19.23;;;11.70;99.90;;;;;;5127772;27;20039;-85
2022/03/15 12:31:06;;;;;;;25.50;18.87;;;11.80;99.90;;;;;;5096015;28;20039;-86
2022/03/15 12:33:31;;;;;;;24.40;18.77;;;11.80;99.90;;;;;;5094802;27;20529;-85
2022/03/15 12:36:07;;;;;;;31.42;21.23;;;11.70;99.90;;;;;;5128754;27;20131;-86
2022/03/15 12:38:40;;;;;;;33.55;21.33;;;11.70;99.90;;;;;;5112883;27;20130;-85